Weather reports worldwide

Advertisment
Trento, Italy (16023): temperature & dewpoint: 15.05.2019 16:00:00 - 21.05.2019 16:00:00 (CEST)Trento, Italy (16023): wind speed: 15.05.2019 16:00:00 - 21.05.2019 16:00:00 (CEST)Trento, Italy (16023): wind direction: 15.05.2019 16:00:00 - 21.05.2019 16:00:00 (CEST)Trento, Italy (16023): reduced air pressure: 15.05.2019 16:00:00 - 21.05.2019 16:00:00 (CEST)
Date & Time tt [°C] td [°C] ff [km/h] ff [kn] dd ppp [hPa]
21.05.2019 16:00:00 - - - - - -
21.05.2019 15:00:00 18,7 10,2 0 0 N 1008,9
21.05.2019 14:00:00 18,6 10,4 0 0 N 1008,7
21.05.2019 13:00:00 17,5 10,6 0 0 N 1008,6
21.05.2019 12:00:00 15,5 10,8 0 0 N 1008,8
21.05.2019 11:00:00 14,3 9,9 0 0 N 1009,0
21.05.2019 10:00:00 13,5 10,6 0 0 N 1008,8
21.05.2019 09:00:00 12,6 10,3 0 0 N 1008,5
21.05.2019 08:00:00 12,3 10,5 0 0 N 1008,3
21.05.2019 07:00:00 12,0 10,4 0 0 N 1007,9
21.05.2019 06:00:00 11,9 10,0 0 0 N 1007,6
21.05.2019 05:00:00 11,7 10,1 0 0 N 1007,4
21.05.2019 04:00:00 11,8 10,4 9 5 N 1007,4
21.05.2019 03:00:00 11,9 10,6 5 3 NNW 1007,3
21.05.2019 02:00:00 12,2 10,6 11 6 N 1007,5
21.05.2019 01:00:00 12,6 11,2 0 0 N 1007,5
21.05.2019 00:00:00 12,7 11,3 0 0 N 1007,5
20.05.2019 23:00:00 12,6 11,0 0 0 N 1007,1
20.05.2019 22:00:00 12,7 10,9 0 0 N 1006,8
20.05.2019 21:00:00 13,0 10,9 0 0 N 1006,4
20.05.2019 20:00:00 13,6 11,5 0 0 N 1006,3
20.05.2019 19:00:00 14,2 12,0 8 4 NNW 1006,0
20.05.2019 18:00:00 14,6 11,7 0 0 N 1005,7
20.05.2019 17:00:00 14,6 12,1 0 0 N 1005,6
20.05.2019 16:00:00 14,8 12,1 4 2 NNW 1005,4
20.05.2019 15:00:00 15,0 11,5 8 4 NNW 1005,3
20.05.2019 14:00:00 14,8 11,9 8 4 NNW 1005,2
20.05.2019 13:00:00 14,7 11,4 11 6 NNW 1004,8
20.05.2019 12:00:00 14,8 11,0 5 3 N 1004,6
20.05.2019 11:00:00 14,9 10,5 0 0 N 1004,4
20.05.2019 10:00:00 14,3 11,2 0 0 N 1004,2
20.05.2019 09:00:00 13,4 11,4 4 2 S 1004,2
20.05.2019 08:00:00 11,9 10,8 0 0 N 1004,2
20.05.2019 07:00:00 11,4 10,1 0 0 N 1004,1
20.05.2019 06:00:00 11,4 10,1 0 0 N 1004,1
20.05.2019 05:00:00 11,4 10,1 0 0 N 1004,5
20.05.2019 04:00:00 11,5 10,2 0 0 N 1004,8
20.05.2019 03:00:00 11,9 10,6 0 0 N 1005,1
20.05.2019 02:00:00 11,9 10,6 0 0 N 1005,1
20.05.2019 01:00:00 11,8 10,4 0 0 N 1005,4
20.05.2019 00:00:00 11,9 10,6 0 0 N 1005,6
19.05.2019 23:00:00 11,7 10,1 0 0 N 1005,7
19.05.2019 22:00:00 11,8 9,9 0 0 N 1005,4
19.05.2019 21:00:00 12,7 10,6 0 0 N 1005,1
19.05.2019 20:00:00 13,4 11,4 0 0 N 1005,1
19.05.2019 19:00:00 13,6 10,7 0 0 N 1005,1
19.05.2019 18:00:00 13,6 11,1 0 0 N 1005,5
19.05.2019 17:00:00 13,8 10,7 11 6 S 1005,5
19.05.2019 16:00:00 13,7 10,7 0 0 N 1005,8
19.05.2019 15:00:00 12,7 10,4 5 3 NNW 1006,2
19.05.2019 14:00:00 12,4 9,7 0 0 N 1006,3
19.05.2019 13:00:00 12,7 10,6 0 0 N 1006,2
19.05.2019 12:00:00 11,9 10,0 0 0 N 1006,6
19.05.2019 11:00:00 11,4 9,5 0 0 N 1006,9
19.05.2019 10:00:00 11,5 9,7 0 0 N 1006,9
19.05.2019 09:00:00 11,1 9,5 0 0 N 1006,8
19.05.2019 08:00:00 10,8 9,4 0 0 N 1006,8
19.05.2019 07:00:00 10,6 9,2 0 0 N 1007,3
19.05.2019 06:00:00 10,6 9,0 0 0 N 1007,6
19.05.2019 05:00:00 10,8 9,0 0 0 N 1007,6
19.05.2019 04:00:00 11,0 9,4 0 0 N 1007,8
19.05.2019 03:00:00 10,6 9,0 0 0 N 1008,2
19.05.2019 02:00:00 11,1 9,5 0 0 N 1008,3
19.05.2019 01:00:00 11,3 10,0 0 0 N 1008,8
19.05.2019 00:00:00 11,3 9,9 11 6 NNW 1008,9
18.05.2019 23:00:00 11,4 9,8 0 0 N 1009,2
18.05.2019 22:00:00 11,8 9,7 0 0 N 1009,0
18.05.2019 21:00:00 12,3 9,3 0 0 N 1008,3
18.05.2019 20:00:00 13,1 10,1 0 0 N 1007,8
18.05.2019 19:00:00 13,3 9,7 0 0 N 1007,7
18.05.2019 18:00:00 13,5 10,3 0 0 N 1008,2
18.05.2019 17:00:00 13,4 9,8 0 0 N 1008,3
18.05.2019 16:00:00 14,1 10,5 0 0 N 1008,4
18.05.2019 15:00:00 14,2 9,6 0 0 N 1008,5
18.05.2019 14:00:00 14,3 9,5 0 0 N 1008,7
18.05.2019 13:00:00 14,0 9,0 0 0 N 1008,8
18.05.2019 12:00:00 13,6 9,8 0 0 N 1009,1
18.05.2019 11:00:00 13,4 9,6 0 0 N 1008,9
18.05.2019 10:00:00 13,7 8,9 0 0 N 1008,8
18.05.2019 09:00:00 13,8 8,6 0 0 N 1008,6
18.05.2019 08:00:00 13,0 8,8 0 0 N 1008,2
18.05.2019 07:00:00 11,6 8,0 0 0 N 1008,4
18.05.2019 06:00:00 11,3 7,2 0 0 N 1008,4
18.05.2019 05:00:00 12,1 7,6 0 0 N 1008,6
18.05.2019 04:00:00 12,9 6,9 0 0 N 1008,7
18.05.2019 03:00:00 14,2 7,0 0 0 N 1008,7
18.05.2019 02:00:00 13,8 7,5 0 0 N 1008,9
18.05.2019 01:00:00 14,1 6,6 0 0 N 1009,1
18.05.2019 00:00:00 14,7 6,4 0 0 N 1009,2
17.05.2019 23:00:00 15,8 7,0 0 0 N 1009,0
17.05.2019 22:00:00 15,8 6,4 0 0 N 1008,7
17.05.2019 21:00:00 16,8 6,2 0 0 N 1008,0
17.05.2019 20:00:00 17,0 7,3 0 0 N 1007,9
17.05.2019 19:00:00 19,0 6,1 21 11 S 1007,5
17.05.2019 18:00:00 19,3 6,7 2 1 S 1007,6
17.05.2019 17:00:00 19,0 6,7 18 10 S 1008,2
17.05.2019 16:00:00 19,1 8,1 22 12 SSW 1008,5
17.05.2019 15:00:00 18,8 7,8 28 15 S 1008,7
17.05.2019 14:00:00 18,5 6,3 22 12 S 1008,7
17.05.2019 13:00:00 18,4 7,7 11 6 SE 1008,7
17.05.2019 12:00:00 17,8 8,0 0 0 N 1009,2
17.05.2019 11:00:00 17,0 9,8 0 0 N 1009,6
17.05.2019 10:00:00 14,1 9,1 0 0 N 1010,5
17.05.2019 09:00:00 14,0 9,0 0 0 N 1010,8
17.05.2019 08:00:00 13,2 8,6 0 0 N 1010,6
17.05.2019 07:00:00 12,6 8,2 0 0 N 1010,4
17.05.2019 06:00:00 12,9 7,7 0 0 N 1010,1
17.05.2019 05:00:00 13,5 7,7 0 0 N 1010,1
17.05.2019 04:00:00 14,1 7,3 0 0 N 1010,3
17.05.2019 03:00:00 14,4 7,4 0 0 N 1010,4
17.05.2019 02:00:00 14,8 7,0 0 0 N 1010,8
17.05.2019 01:00:00 15,1 6,8 0 0 N 1010,9
17.05.2019 00:00:00 15,6 6,5 15 8 S 1010,9
16.05.2019 23:00:00 16,3 6,3 16 9 SSE 1010,8
16.05.2019 22:00:00 16,7 5,9 15 8 S 1010,3
16.05.2019 21:00:00 17,1 5,6 21 11 S 1009,7
16.05.2019 20:00:00 17,8 5,3 18 10 S 1009,2
16.05.2019 19:00:00 18,2 5,0 16 9 SSW 1008,6
16.05.2019 18:00:00 19,6 4,8 24 13 SSW 1008,5
16.05.2019 17:00:00 21,4 6,0 2 1 WSW 1008,3
16.05.2019 16:00:00 20,2 6,8 34 18 SSW 1008,6
16.05.2019 15:00:00 20,3 5,8 31 17 SSW 1009,2
16.05.2019 14:00:00 20,2 5,4 18 10 S 1009,8
16.05.2019 13:00:00 19,4 5,4 0 0 N 1010,5
16.05.2019 12:00:00 18,1 6,5 0 0 N 1011,3
16.05.2019 11:00:00 15,1 7,3 0 0 N 1012,4
16.05.2019 10:00:00 12,6 6,8 0 0 N 1013,6
16.05.2019 09:00:00 9,6 6,6 0 0 N 1014,3
16.05.2019 08:00:00 6,1 4,9 0 0 N 1014,9
16.05.2019 07:00:00 5,3 3,8 0 0 N 1014,8
16.05.2019 06:00:00 5,2 3,3 0 0 N 1014,7
16.05.2019 05:00:00 5,6 3,7 0 0 N 1015,0
16.05.2019 04:00:00 5,9 3,5 0 0 N 1015,3
16.05.2019 03:00:00 6,7 3,8 0 0 N 1015,4
16.05.2019 02:00:00 7,1 3,5 0 0 N 1015,7
16.05.2019 01:00:00 8,8 4,6 0 0 N 1015,7
16.05.2019 00:00:00 9,5 4,4 0 0 N 1015,9
15.05.2019 23:00:00 11,0 4,8 0 0 N 1015,4
15.05.2019 22:00:00 11,3 4,2 15 8 W 1015,0
15.05.2019 21:00:00 12,8 4,7 8 4 W 1014,0
15.05.2019 20:00:00 13,6 5,4 26 14 SW 1013,3
15.05.2019 19:00:00 14,6 5,3 21 11 SW 1012,3
15.05.2019 18:00:00 16,1 5,9 28 15 SSW 1012,1
15.05.2019 17:00:00 14,9 5,0 21 11 S 1012,7
15.05.2019 16:00:00 14,3 3,6 15 8 S 1013,5

tt = temperature
td = dewpoint
ff = wind speed
dd = wind direction
ppp = reduced air pressure

Next stations